sensor_id;sensor_type;location;lat;lon;timestamp;pressure;altitude;pressure_sealevel;temperature;humidity
19210;BME280;9738;51.654;14.238;2023-02-12T00:01:30;102191.88;;;6.18;100.00
19210;BME280;9738;51.654;14.238;2023-02-12T00:03:56;102191.88;;;6.18;100.00
19210;BME280;9738;51.654;14.238;2023-02-12T00:06:23;102197.97;;;6.20;100.00
19210;BME280;9738;51.654;14.238;2023-02-12T00:08:51;102197.09;;;6.20;100.00
19210;BME280;9738;51.654;14.238;2023-02-12T00:11:19;102205.84;;;6.22;100.00
19210;BME280;9738;51.654;14.238;2023-02-12T00:13:46;102206.69;;;6.22;100.00
19210;BME280;9738;51.654;14.238;2023-02-12T00:16:15;102200.53;;;6.22;100.00
19210;BME280;9738;51.654;14.238;2023-02-12T00:18:41;102210.28;;;6.21;100.00
19210;BME280;9738;51.654;14.238;2023-02-12T00:21:07;102203.19;;;6.22;100.00
19210;BME280;9738;51.654;14.238;2023-02-12T00:23:37;102210.19;;;6.23;100.00
19210;BME280;9738;51.654;14.238;2023-02-12T00:26:08;102206.53;;;6.26;100.00
19210;BME280;9738;51.654;14.238;2023-02-12T00:28:34;102214.41;;;6.27;100.00
19210;BME280;9738;51.654;14.238;2023-02-12T00:31:12;102226.91;;;6.25;100.00
19210;BME280;9738;51.654;14.238;2023-02-12T00:33:39;102225.25;;;6.22;100.00
19210;BME280;9738;51.654;14.238;2023-02-12T00:36:06;102226.91;;;6.25;100.00
19210;BME280;9738;51.654;14.238;2023-02-12T00:38:32;102219.97;;;6.22;100.00
19210;BME280;9738;51.654;14.238;2023-02-12T00:40:58;102223.47;;;6.23;100.00
19210;BME280;9738;51.654;14.238;2023-02-12T00:43:24;102224.41;;;6.22;100.00
19210;BME280;9738;51.654;14.238;2023-02-12T00:45:50;102225.22;;;6.24;100.00
19210;BME280;9738;51.654;14.238;2023-02-12T00:48:16;102235.97;;;6.21;100.00
19210;BME280;9738;51.654;14.238;2023-02-12T00:50:47;102234.06;;;6.23;100.00
19210;BME280;9738;51.654;14.238;2023-02-12T00:53:13;102241.13;;;6.24;100.00
19210;BME280;9738;51.654;14.238;2023-02-12T00:55:39;102238.47;;;6.24;100.00
19210;BME280;9738;51.654;14.238;2023-02-12T00:58:06;102237.53;;;6.25;100.00
19210;BME280;9738;51.654;14.238;2023-02-12T01:00:32;102241.97;;;6.25;100.00
19210;BME280;9738;51.654;14.238;2023-02-12T01:02:57;102246.25;;;6.27;100.00
19210;BME280;9738;51.654;14.238;2023-02-12T01:05:24;102250.81;;;6.25;100.00
19210;BME280;9738;51.654;14.238;2023-02-12T01:07:51;102243.84;;;6.22;100.00
19210;BME280;9738;51.654;14.238;2023-02-12T01:10:17;102244.78;;;6.21;100.00
19210;BME280;9738;51.654;14.238;2023-02-12T01:12:46;102258.13;;;6.20;100.00
19210;BME280;9738;51.654;14.238;2023-02-12T01:15:12;102245.72;;;6.20;100.00
19210;BME280;9738;51.654;14.238;2023-02-12T01:17:38;102241.97;;;6.25;100.00
19210;BME280;9738;51.654;14.238;2023-02-12T01:20:06;102246.34;;;6.26;100.00
19210;BME280;9738;51.654;14.238;2023-02-12T01:22:33;102248.91;;;6.27;100.00
19210;BME280;9738;51.654;14.238;2023-02-12T01:24:59;102252.44;;;6.28;100.00
19210;BME280;9738;51.654;14.238;2023-02-12T01:27:26;102255.00;;;6.29;100.00
19210;BME280;9738;51.654;14.238;2023-02-12T01:29:51;102252.44;;;6.28;100.00
19210;BME280;9738;51.654;14.238;2023-02-12T01:32:17;102255.06;;;6.28;100.00
19210;BME280;9738;51.654;14.238;2023-02-12T01:34:43;102246.25;;;6.27;100.00
19210;BME280;9738;51.654;14.238;2023-02-12T01:37:09;102248.16;;;6.25;100.00
19210;BME280;9738;51.654;14.238;2023-02-12T01:39:35;102253.44;;;6.25;100.00
19210;BME280;9738;51.654;14.238;2023-02-12T01:42:03;102253.44;;;6.25;100.00
19210;BME280;9738;51.654;14.238;2023-02-12T01:44:31;102253.44;;;6.25;100.00
19210;BME280;9738;51.654;14.238;2023-02-12T01:46:58;102254.31;;;6.26;100.00
19210;BME280;9738;51.654;14.238;2023-02-12T01:49:30;102255.00;;;6.29;100.00
19210;BME280;9738;51.654;14.238;2023-02-12T01:52:20;102249.69;;;6.29;100.00
19210;BME280;9738;51.654;14.238;2023-02-12T01:54:51;102251.44;;;6.30;100.00
19210;BME280;9738;51.654;14.238;2023-02-12T01:57:19;102256.66;;;6.32;100.00
19210;BME280;9738;51.654;14.238;2023-02-12T01:59:48;102264.53;;;6.33;100.00
19210;BME280;9738;51.654;14.238;2023-02-12T02:02:16;102260.94;;;6.34;100.00
19210;BME280;9738;51.654;14.238;2023-02-12T02:04:45;102262.63;;;6.35;100.00
19210;BME280;9738;51.654;14.238;2023-02-12T02:07:13;102271.53;;;6.34;100.00
19210;BME280;9738;51.654;14.238;2023-02-12T02:09:40;102269.75;;;6.35;100.00
19210;BME280;9738;51.654;14.238;2023-02-12T02:12:06;102273.19;;;6.37;100.00
19210;BME280;9738;51.654;14.238;2023-02-12T02:14:55;102279.34;;;6.37;100.00
19210;BME280;9738;51.654;14.238;2023-02-12T02:20:29;102275.91;;;6.35;100.00
19210;BME280;9738;51.654;14.238;2023-02-12T02:26:40;102275.13;;;6.33;100.00
19210;BME280;9738;51.654;14.238;2023-02-12T02:29:43;102272.41;;;6.35;100.00
19210;BME280;9738;51.654;14.238;2023-02-12T02:32:17;102264.44;;;6.35;100.00
19210;BME280;9738;51.654;14.238;2023-02-12T02:35:02;102274.19;;;6.34;100.00
19210;BME280;9738;51.654;14.238;2023-02-12T02:37:33;102272.34;;;6.36;100.00
19210;BME280;9738;51.654;14.238;2023-02-12T02:40:13;102267.19;;;6.33;100.00
19210;BME280;9738;51.654;14.238;2023-02-12T02:42:52;102279.59;;;6.33;100.00
19210;BME280;9738;51.654;14.238;2023-02-12T02:45:31;102270.78;;;6.32;100.00
19210;BME280;9738;51.654;14.238;2023-02-12T02:48:04;102289.44;;;6.31;100.00
19210;BME280;9738;51.654;14.238;2023-02-12T02:50:34;102282.31;;;6.31;100.00
19210;BME280;9738;51.654;14.238;2023-02-12T02:53:05;102282.31;;;6.31;100.00
19210;BME280;9738;51.654;14.238;2023-02-12T02:55:38;102289.25;;;6.34;100.00
19210;BME280;9738;51.654;14.238;2023-02-12T02:58:11;102282.31;;;6.31;100.00
19210;BME280;9738;51.654;14.238;2023-02-12T03:00:44;102284.97;;;6.31;100.00
19210;BME280;9738;51.654;14.238;2023-02-12T03:03:24;102293.72;;;6.33;100.00
19210;BME280;9738;51.654;14.238;2023-02-12T03:05:54;102290.19;;;6.33;100.00
19210;BME280;9738;51.654;14.238;2023-02-12T03:08:27;102300.03;;;6.31;100.00
19210;BME280;9738;51.654;14.238;2023-02-12T03:11:01;102291.38;;;6.27;100.00
19210;BME280;9738;51.654;14.238;2023-02-12T03:13:37;102300.19;;;6.28;100.00
19210;BME280;9738;51.654;14.238;2023-02-12T03:16:10;102299.56;;;6.22;100.00
19210;BME280;9738;51.654;14.238;2023-02-12T03:18:54;102301.34;;;6.22;100.00
19210;BME280;9738;51.654;14.238;2023-02-12T03:21:32;102297.94;;;6.20;100.00
19210;BME280;9738;51.654;14.238;2023-02-12T03:24:11;102304.09;;;6.20;100.00
19210;BME280;9738;51.654;14.238;2023-02-12T03:26:48;102308.53;;;6.20;100.00
19210;BME280;9738;51.654;14.238;2023-02-12T03:29:15;102319.06;;;6.21;100.00
19210;BME280;9738;51.654;14.238;2023-02-12T03:37:26;102320.00;;;6.20;100.00
19210;BME280;9738;51.654;14.238;2023-02-12T03:39:57;102319.16;;;6.20;100.00
19210;BME280;9738;51.654;14.238;2023-02-12T03:42:44;102330.63;;;6.20;100.00
19210;BME280;9738;51.654;14.238;2023-02-12T03:48:05;102342.31;;;6.16;100.00
19210;BME280;9738;51.654;14.238;2023-02-12T03:53:05;102345.81;;;6.17;100.00
19210;BME280;9738;51.654;14.238;2023-02-12T03:55:33;102348.44;;;6.18;100.00
19210;BME280;9738;51.654;14.238;2023-02-12T03:58:02;102347.56;;;6.18;100.00
19210;BME280;9738;51.654;14.238;2023-02-12T04:00:32;102355.53;;;6.18;100.00
19210;BME280;9738;51.654;14.238;2023-02-12T04:02:58;102353.72;;;6.18;100.00
19210;BME280;9738;51.654;14.238;2023-02-12T04:05:25;102355.44;;;6.19;100.00
19210;BME280;9738;51.654;14.238;2023-02-12T04:07:53;102361.75;;;6.17;100.00
19210;BME280;9738;51.654;14.238;2023-02-12T04:10:37;102365.34;;;6.16;100.00
19210;BME280;9738;51.654;14.238;2023-02-12T04:18:47;102366.28;;;6.15;100.00
19210;BME280;9738;51.654;14.238;2023-02-12T04:21:37;102376.19;;;6.11;100.00
19210;BME280;9738;51.654;14.238;2023-02-12T04:27:19;102377.91;;;6.12;100.00
19210;BME280;9738;51.654;14.238;2023-02-12T04:30:11;102387.72;;;6.10;100.00
19210;BME280;9738;51.654;14.238;2023-02-12T04:32:47;102393.75;;;6.14;100.00
19210;BME280;9738;51.654;14.238;2023-02-12T04:35:34;102388.44;;;6.14;100.00
19210;BME280;9738;51.654;14.238;2023-02-12T04:38:08;102392.88;;;6.13;100.00
19210;BME280;9738;51.654;14.238;2023-02-12T04:40:40;102397.16;;;6.16;100.00
19210;BME280;9738;51.654;14.238;2023-02-12T04:43:06;102391.81;;;6.17;100.00
19210;BME280;9738;51.654;14.238;2023-02-12T04:45:34;102396.31;;;6.15;100.00
19210;BME280;9738;51.654;14.238;2023-02-12T04:48:01;102389.28;;;6.14;100.00
19210;BME280;9738;51.654;14.238;2023-02-12T04:50:36;102399.91;;;6.14;100.00
19210;BME280;9738;51.654;14.238;2023-02-12T04:53:03;102402.63;;;6.13;100.00
19210;BME280;9738;51.654;14.238;2023-02-12T04:55:29;102402.63;;;6.13;100.00
19210;BME280;9738;51.654;14.238;2023-02-12T04:57:54;102399.13;;;6.12;100.00
19210;BME280;9738;51.654;14.238;2023-02-12T05:00:21;102406.22;;;6.12;100.00
19210;BME280;9738;51.654;14.238;2023-02-12T05:02:47;102407.94;;;6.13;100.00
19210;BME280;9738;51.654;14.238;2023-02-12T05:05:12;102407.16;;;6.11;100.00
19210;BME280;9738;51.654;14.238;2023-02-12T05:07:39;102411.59;;;6.10;100.00
19210;BME280;9738;51.654;14.238;2023-02-12T05:10:05;102410.72;;;6.10;100.00
19210;BME280;9738;51.654;14.238;2023-02-12T05:12:31;102407.94;;;6.13;100.00
19210;BME280;9738;51.654;14.238;2023-02-12T05:14:57;102413.16;;;6.14;100.00
19210;BME280;9738;51.654;14.238;2023-02-12T05:17:23;102413.09;;;6.16;100.00
19210;BME280;9738;51.654;14.238;2023-02-12T05:19:49;102414.09;;;6.13;100.00
19210;BME280;9738;51.654;14.238;2023-02-12T05:22:16;102417.69;;;6.12;100.00
19210;BME280;9738;51.654;14.238;2023-02-12T05:24:42;102417.69;;;6.12;100.00
19210;BME280;9738;51.654;14.238;2023-02-12T05:27:08;102425.75;;;6.11;100.00
19210;BME280;9738;51.654;14.238;2023-02-12T05:29:35;102422.94;;;6.14;100.00
19210;BME280;9738;51.654;14.238;2023-02-12T05:32:01;102424.63;;;6.15;100.00
19210;BME280;9738;51.654;14.238;2023-02-12T05:34:26;102423.69;;;6.16;100.00
19210;BME280;9738;51.654;14.238;2023-02-12T05:36:53;102422.94;;;6.14;100.00
19210;BME280;9738;51.654;14.238;2023-02-12T05:39:18;102422.16;;;6.12;100.00
19210;BME280;9738;51.654;14.238;2023-02-12T05:41:44;102426.72;;;6.08;100.00
19210;BME280;9738;51.654;14.238;2023-02-12T05:44:10;102422.38;;;6.07;100.00
19210;BME280;9738;51.654;14.238;2023-02-12T05:46:37;102430.16;;;6.10;100.00
19210;BME280;9738;51.654;14.238;2023-02-12T05:49:03;102423.94;;;6.11;100.00
19210;BME280;9738;51.654;14.238;2023-02-12T05:51:29;102426.59;;;6.11;100.00
19210;BME280;9738;51.654;14.238;2023-02-12T05:53:59;102423.94;;;6.11;100.00
19210;BME280;9738;51.654;14.238;2023-02-12T05:56:30;102435.53;;;6.09;100.00
19210;BME280;9738;51.654;14.238;2023-02-12T05:58:59;102431.34;;;6.05;100.00
19210;BME280;9738;51.654;14.238;2023-02-12T06:01:47;102436.78;;;6.02;100.00
19210;BME280;9738;51.654;14.238;2023-02-12T06:04:22;102441.94;;;6.05;100.00
19210;BME280;9738;51.654;14.238;2023-02-12T06:06:49;102447.19;;;6.06;100.00
19210;BME280;9738;51.654;14.238;2023-02-12T06:09:16;102457.88;;;6.05;100.00
19210;BME280;9738;51.654;14.238;2023-02-12T06:11:42;102453.56;;;6.02;100.00
19210;BME280;9738;51.654;14.238;2023-02-12T06:14:11;102453.56;;;6.02;100.00
19210;BME280;9738;51.654;14.238;2023-02-12T06:16:38;102456.06;;;6.05;100.00
19210;BME280;9738;51.654;14.238;2023-02-12T06:19:05;102457.88;;;6.05;100.00
19210;BME280;9738;51.654;14.238;2023-02-12T06:21:32;102466.59;;;6.07;100.00
19210;BME280;9738;51.654;14.238;2023-02-12T06:23:58;102465.59;;;6.09;100.00
19210;BME280;9738;51.654;14.238;2023-02-12T06:26:25;102469.09;;;6.10;100.00
19210;BME280;9738;51.654;14.238;2023-02-12T06:28:52;102465.53;;;6.11;100.00
19210;BME280;9738;51.654;14.238;2023-02-12T06:33:46;102481.50;;;6.09;100.00
19210;BME280;9738;51.654;14.238;2023-02-12T06:36:11;102483.38;;;6.07;100.00
19210;BME280;9738;51.654;14.238;2023-02-12T06:38:38;102486.13;;;6.06;100.00
19210;BME280;9738;51.654;14.238;2023-02-12T06:41:04;102499.28;;;6.07;100.00
19210;BME280;9738;51.654;14.238;2023-02-12T06:43:30;102490.47;;;6.07;100.00
19210;BME280;9738;51.654;14.238;2023-02-12T06:45:59;102494.00;;;6.07;100.00
19210;BME280;9738;51.654;14.238;2023-02-12T06:48:26;102495.78;;;6.07;100.00
19210;BME280;9738;51.654;14.238;2023-02-12T06:50:51;102500.31;;;6.05;100.00
19210;BME280;9738;51.654;14.238;2023-02-12T06:53:18;102500.34;;;6.03;100.00
19210;BME280;9738;51.654;14.238;2023-02-12T06:55:43;102510.84;;;6.06;100.00
19210;BME280;9738;51.654;14.238;2023-02-12T06:58:09;102501.00;;;6.08;100.00
19210;BME280;9738;51.654;14.238;2023-02-12T07:00:35;102512.47;;;6.09;100.00
19210;BME280;9738;51.654;14.238;2023-02-12T07:03:01;102505.38;;;6.09;100.00
19210;BME280;9738;51.654;14.238;2023-02-12T07:05:27;102515.94;;;6.11;100.00
19210;BME280;9738;51.654;14.238;2023-02-12T07:07:53;102507.91;;;6.12;100.00
19210;BME280;9738;51.654;14.238;2023-02-12T07:10:19;102511.41;;;6.13;100.00
19210;BME280;9738;51.654;14.238;2023-02-12T07:12:47;102517.56;;;6.13;100.00
19210;BME280;9738;51.654;14.238;2023-02-12T07:15:14;102526.31;;;6.15;100.00
19210;BME280;9738;51.654;14.238;2023-02-12T07:17:40;102527.19;;;6.16;100.00
19210;BME280;9738;51.654;14.238;2023-02-12T07:20:06;102528.03;;;6.16;100.00
19210;BME280;9738;51.654;14.238;2023-02-12T07:22:36;102526.25;;;6.17;100.00
19210;BME280;9738;51.654;14.238;2023-02-12T07:25:01;102529.63;;;6.20;100.00
19210;BME280;9738;51.654;14.238;2023-02-12T07:27:27;102537.50;;;6.22;100.00
19210;BME280;9738;51.654;14.238;2023-02-12T07:29:54;102540.03;;;6.25;100.00
19210;BME280;9738;51.654;14.238;2023-02-12T07:32:19;102544.41;;;6.26;100.00
19210;BME280;9738;51.654;14.238;2023-02-12T07:34:46;102548.78;;;6.27;100.00
19210;BME280;9738;51.654;14.238;2023-02-12T07:37:12;102548.78;;;6.27;100.00
19210;BME280;9738;51.654;14.238;2023-02-12T07:39:38;102551.50;;;6.26;100.00
19210;BME280;9738;51.654;14.238;2023-02-12T07:42:03;102555.88;;;6.27;100.00
19210;BME280;9738;51.654;14.238;2023-02-12T07:44:30;102570.16;;;6.24;100.00
19210;BME280;9738;51.654;14.238;2023-02-12T07:46:56;102566.56;;;6.25;100.00
19210;BME280;9738;51.654;14.238;2023-02-12T07:49:22;102569.28;;;6.23;100.00
19210;BME280;9738;51.654;14.238;2023-02-12T07:51:48;102571.88;;;6.25;100.00
19210;BME280;9738;51.654;14.238;2023-02-12T07:54:15;102572.72;;;6.26;100.00
19210;BME280;9738;51.654;14.238;2023-02-12T07:56:41;102575.19;;;6.30;100.00
19210;BME280;9738;51.654;14.238;2023-02-12T07:59:13;102567.06;;;6.33;100.00
19210;BME280;9738;51.654;14.238;2023-02-12T08:01:42;102574.00;;;6.36;100.00
19210;BME280;9738;51.654;14.238;2023-02-12T08:04:11;102579.19;;;6.39;100.00
19210;BME280;9738;51.654;14.238;2023-02-12T08:06:42;102578.31;;;6.38;100.00
19210;BME280;9738;51.654;14.238;2023-02-12T08:09:11;102580.03;;;6.39;100.00
19210;BME280;9738;51.654;14.238;2023-02-12T08:11:38;102582.63;;;6.41;100.00
19210;BME280;9738;51.654;14.238;2023-02-12T08:14:05;102594.19;;;6.40;100.00
19210;BME280;9738;51.654;14.238;2023-02-12T08:16:35;102594.19;;;6.40;100.00
19210;BME280;9738;51.654;14.238;2023-02-12T08:19:01;102599.56;;;6.38;100.00
19210;BME280;9738;51.654;14.238;2023-02-12T08:21:27;102598.63;;;6.39;100.00
19210;BME280;9738;51.654;14.238;2023-02-12T08:23:55;102601.28;;;6.39;100.00
19210;BME280;9738;51.654;14.238;2023-02-12T08:26:22;102604.78;;;6.40;100.00
19210;BME280;9738;51.654;14.238;2023-02-12T08:28:56;102601.28;;;6.39;100.00
19210;BME280;9738;51.654;14.238;2023-02-12T08:31:25;102603.94;;;6.39;100.00
19210;BME280;9738;51.654;14.238;2023-02-12T08:33:53;102608.31;;;6.40;100.00
19210;BME280;9738;51.654;14.238;2023-02-12T08:36:21;102615.31;;;6.41;100.00
19210;BME280;9738;51.654;14.238;2023-02-12T08:38:48;102610.88;;;6.42;100.00
19210;BME280;9738;51.654;14.238;2023-02-12T08:41:21;102601.00;;;6.45;100.00
19210;BME280;9738;51.654;14.238;2023-02-12T08:43:47;102599.97;;;6.48;100.00
19210;BME280;9738;51.654;14.238;2023-02-12T08:46:25;102600.06;;;6.46;100.00
19210;BME280;9738;51.654;14.238;2023-02-12T08:49:00;102597.03;;;6.35;100.00
19210;BME280;9738;51.654;14.238;2023-02-12T08:51:29;102599.84;;;6.32;100.00
19210;BME280;9738;51.654;14.238;2023-02-12T08:53:58;102600.78;;;6.31;100.00
19210;BME280;9738;51.654;14.238;2023-02-12T08:56:26;102605.94;;;6.34;100.00
19210;BME280;9738;51.654;14.238;2023-02-12T08:58:53;102605.06;;;6.34;100.00
19210;BME280;9738;51.654;14.238;2023-02-12T09:01:21;102609.25;;;6.39;100.00
19210;BME280;9738;51.654;14.238;2023-02-12T09:03:47;102605.72;;;6.39;100.00
19210;BME280;9738;51.654;14.238;2023-02-12T09:06:16;102615.31;;;6.41;100.00
19210;BME280;9738;51.654;14.238;2023-02-12T09:08:42;102617.78;;;6.46;100.00
19210;BME280;9738;51.654;14.238;2023-02-12T09:11:11;102615.19;;;6.44;100.00
19210;BME280;9738;51.654;14.238;2023-02-12T09:13:38;102625.94;;;6.41;100.00
19210;BME280;9738;51.654;14.238;2023-02-12T09:16:05;102629.63;;;6.39;100.00
19210;BME280;9738;51.654;14.238;2023-02-12T09:18:32;102627.66;;;6.42;100.00
19210;BME280;9738;51.654;14.238;2023-02-12T09:21:03;102628.97;;;6.53;100.00
19210;BME280;9738;51.654;14.238;2023-02-12T09:23:30;102633.13;;;6.58;100.00
19210;BME280;9738;51.654;14.238;2023-02-12T09:25:55;102643.75;;;6.58;100.00
19210;BME280;9738;51.654;14.238;2023-02-12T09:28:22;102642.41;;;6.68;100.00
19210;BME280;9738;51.654;14.238;2023-02-12T09:30:48;102644.97;;;6.70;100.00
19210;BME280;9738;51.654;14.238;2023-02-12T09:33:13;102646.69;;;6.71;100.00
19210;BME280;9738;51.654;14.238;2023-02-12T09:35:40;102643.19;;;6.70;100.00
19210;BME280;9738;51.654;14.238;2023-02-12T09:38:07;102645.91;;;6.69;100.00
19210;BME280;9738;51.654;14.238;2023-02-12T09:43:37;102648.63;;;6.67;100.00
19210;BME280;9738;51.654;14.238;2023-02-12T09:46:17;102652.13;;;6.68;100.00
19210;BME280;9738;51.654;14.238;2023-02-12T09:48:54;102655.59;;;6.70;100.00
19210;BME280;9738;51.654;14.238;2023-02-12T09:51:22;102654.66;;;6.71;100.00
19210;BME280;9738;51.654;14.238;2023-02-12T09:53:56;102659.81;;;6.74;100.00
19210;BME280;9738;51.654;14.238;2023-02-12T09:56:25;102658.91;;;6.75;100.00
19210;BME280;9738;51.654;14.238;2023-02-12T09:58:57;102667.56;;;6.78;100.00
19210;BME280;9738;51.654;14.238;2023-02-12T10:01:26;102665.50;;;6.85;100.00
19210;BME280;9738;51.654;14.238;2023-02-12T10:03:53;102663.00;;;6.82;100.00
19210;BME280;9738;51.654;14.238;2023-02-12T10:06:25;102663.13;;;6.79;100.00
19210;BME280;9738;51.654;14.238;2023-02-12T10:09:13;102672.88;;;6.78;100.00
19210;BME280;9738;51.654;14.238;2023-02-12T10:12:09;102656.09;;;6.78;100.00
19210;BME280;9738;51.654;14.238;2023-02-12T10:17:28;102660.19;;;6.85;100.00
19210;BME280;9738;51.654;14.238;2023-02-12T10:20:24;102657.72;;;6.81;100.00
19210;BME280;9738;51.654;14.238;2023-02-12T10:23:51;102660.72;;;6.74;100.00
19210;BME280;9738;51.654;14.238;2023-02-12T10:26:22;102663.03;;;6.81;100.00
19210;BME280;9738;51.654;14.238;2023-02-12T10:28:53;102662.19;;;6.80;100.00
19210;BME280;9738;51.654;14.238;2023-02-12T10:31:36;102661.28;;;6.81;100.00
19210;BME280;9738;51.654;14.238;2023-02-12T10:34:18;102661.00;;;6.87;100.00
19210;BME280;9738;51.654;14.238;2023-02-12T10:36:49;102662.84;;;6.85;100.00
19210;BME280;9738;51.654;14.238;2023-02-12T10:39:31;102663.00;;;6.82;100.00
19210;BME280;9738;51.654;14.238;2023-02-12T10:42:27;102659.53;;;6.80;100.00
19210;BME280;9738;51.654;14.238;2023-02-12T10:44:55;102660.56;;;6.77;100.00
19210;BME280;9738;51.654;14.238;2023-02-12T10:47:22;102651.50;;;6.82;100.00
19210;BME280;9738;51.654;14.238;2023-02-12T10:49:54;102650.50;;;6.84;100.00
19210;BME280;9738;51.654;14.238;2023-02-12T10:52:38;102656.44;;;6.89;100.00
19210;BME280;9738;51.654;14.238;2023-02-12T10:55:23;102655.59;;;6.89;100.00
19210;BME280;9738;51.654;14.238;2023-02-12T10:57:50;102657.22;;;6.91;100.00
19210;BME280;9738;51.654;14.238;2023-02-12T11:00:29;102650.97;;;6.92;100.00
19210;BME280;9738;51.654;14.238;2023-02-12T11:03:20;102649.06;;;6.96;100.00
19210;BME280;9738;51.654;14.238;2023-02-12T11:05:46;102646.78;;;7.05;100.00
19210;BME280;9738;51.654;14.238;2023-02-12T11:08:35;102644.47;;;7.17;100.00
19210;BME280;9738;51.654;14.238;2023-02-12T11:11:19;102638.72;;;7.26;100.00
19210;BME280;9738;51.654;14.238;2023-02-12T11:14:15;102637.53;;;7.31;100.00
19210;BME280;9738;51.654;14.238;2023-02-12T11:16:51;102635.78;;;7.32;100.00
19210;BME280;9738;51.654;14.238;2023-02-12T11:19:26;102641.84;;;7.34;100.00
19210;BME280;9738;51.654;14.238;2023-02-12T11:22:13;102634.34;;;7.42;100.00
19210;BME280;9738;51.654;14.238;2023-02-12T11:24:45;102631.56;;;7.45;100.00
19210;BME280;9738;51.654;14.238;2023-02-12T11:29:40;102630.63;;;7.64;100.00
19210;BME280;9738;51.654;14.238;2023-02-12T11:32:14;102629.28;;;7.72;100.00
19210;BME280;9738;51.654;14.238;2023-02-12T11:34:40;102631.53;;;7.80;100.00
19210;BME280;9738;51.654;14.238;2023-02-12T11:37:15;102632.31;;;7.82;100.00
19210;BME280;9738;51.654;14.238;2023-02-12T11:39:46;102638.13;;;7.90;100.00
19210;BME280;9738;51.654;14.238;2023-02-12T11:42:18;102630.41;;;8.01;100.00
19210;BME280;9738;51.654;14.238;2023-02-12T11:44:50;102632.69;;;8.09;100.00
19210;BME280;9738;51.654;14.238;2023-02-12T11:47:19;102623.34;;;8.00;100.00
19210;BME280;9738;51.654;14.238;2023-02-12T11:49:50;102620.69;;;8.00;100.00
19210;BME280;9738;51.654;14.238;2023-02-12T11:52:20;102616.09;;;8.04;100.00
19210;BME280;9738;51.654;14.238;2023-02-12T11:54:50;102612.38;;;8.06;100.00
19210;BME280;9738;51.654;14.238;2023-02-12T12:00:04;102614.63;;;8.14;100.00
19210;BME280;9738;51.654;14.238;2023-02-12T12:02:38;102611.38;;;8.09;100.00
19210;BME280;9738;51.654;14.238;2023-02-12T12:05:15;102605.22;;;8.08;100.00
19210;BME280;9738;51.654;14.238;2023-02-12T12:07:53;102610.03;;;8.18;100.00
19210;BME280;9738;51.654;14.238;2023-02-12T12:12:57;102616.19;;;8.18;100.00
19210;BME280;9738;51.654;14.238;2023-02-12T12:15:30;102614.16;;;8.23;100.00
19210;BME280;9738;51.654;14.238;2023-02-12T12:21:37;102606.16;;;8.41;100.00
19210;BME280;9738;51.654;14.238;2023-02-12T12:24:22;102602.78;;;8.37;100.00
19210;BME280;9738;51.654;14.238;2023-02-12T12:26:56;102599.31;;;8.35;100.00
19210;BME280;9738;51.654;14.238;2023-02-12T12:32:00;102603.28;;;8.28;100.00
19210;BME280;9738;51.654;14.238;2023-02-12T12:34:27;102592.44;;;8.31;100.00
19210;BME280;9738;51.654;14.238;2023-02-12T12:42:13;102583.91;;;8.42;100.00
19210;BME280;9738;51.654;14.238;2023-02-12T12:45:01;102575.22;;;8.38;100.00
19210;BME280;9738;51.654;14.238;2023-02-12T12:47:43;102580.63;;;8.36;100.00
19210;BME280;9738;51.654;14.238;2023-02-12T12:53:17;102580.53;;;8.38;100.00
19210;BME280;9738;51.654;14.238;2023-02-12T12:56:09;102578.66;;;8.40;100.00
19210;BME280;9738;51.654;14.238;2023-02-12T12:59:13;102589.22;;;8.42;100.00
19210;BME280;9738;51.654;14.238;2023-02-12T13:07:48;102579.25;;;8.45;100.00
19210;BME280;9738;51.654;14.238;2023-02-12T13:10:33;102581.06;;;8.45;100.00
19210;BME280;9738;51.654;14.238;2023-02-12T13:13:21;102578.91;;;8.35;100.00
19210;BME280;9738;51.654;14.238;2023-02-12T13:16:12;102587.88;;;8.33;100.00
19210;BME280;9738;51.654;14.238;2023-02-12T13:21:41;102590.88;;;8.27;100.00
19210;BME280;9738;51.654;14.238;2023-02-12T13:29:35;102594.06;;;8.18;100.00
19210;BME280;9738;51.654;14.238;2023-02-12T13:32:04;102596.63;;;8.19;100.00
19210;BME280;9738;51.654;14.238;2023-02-12T13:34:34;102588.41;;;8.24;100.00
19210;BME280;9738;51.654;14.238;2023-02-12T13:37:03;102594.47;;;8.26;100.00
19210;BME280;9738;51.654;14.238;2023-02-12T13:39:39;102595.34;;;8.26;100.00
19210;BME280;9738;51.654;14.238;2023-02-12T13:47:51;102594.88;;;8.35;100.00
19210;BME280;9738;51.654;14.238;2023-02-12T13:50:36;102587.41;;;8.42;100.00
19210;BME280;9738;51.654;14.238;2023-02-12T13:53:17;102591.19;;;8.38;100.00
19210;BME280;9738;51.654;14.238;2023-02-12T13:56:01;102588.28;;;8.43;100.00
19210;BME280;9738;51.654;14.238;2023-02-12T14:00:56;102589.13;;;8.43;100.00
19210;BME280;9738;51.654;14.238;2023-02-12T14:03:24;102591.03;;;8.41;100.00
19210;BME280;9738;51.654;14.238;2023-02-12T14:06:11;102590.25;;;8.39;100.00
19210;BME280;9738;51.654;14.238;2023-02-12T14:08:39;102592.44;;;8.31;100.00
19210;BME280;9738;51.654;14.238;2023-02-12T14:11:10;102583.06;;;8.24;100.00
19210;BME280;9738;51.654;14.238;2023-02-12T14:13:47;102602.75;;;8.21;100.00
19210;BME280;9738;51.654;14.238;2023-02-12T14:21:59;102589.81;;;8.13;100.00
19210;BME280;9738;51.654;14.238;2023-02-12T14:27:05;102597.28;;;8.07;100.00
19210;BME280;9738;51.654;14.238;2023-02-12T14:32:56;102592.03;;;8.05;100.00
19210;BME280;9738;51.654;14.238;2023-02-12T14:37:57;102598.66;;;7.98;100.00
19210;BME280;9738;51.654;14.238;2023-02-12T14:42:57;102590.22;;;7.90;100.00
19210;BME280;9738;51.654;14.238;2023-02-12T14:45:33;102592.34;;;7.83;100.00
19210;BME280;9738;51.654;14.238;2023-02-12T14:48:00;102597.25;;;7.91;100.00